sensor_id;sensor_type;location;lat;lon;timestamp;pressure;altitude;pressure_sealevel;temperature;humidity
56713;BME280;42589;45.536;9.032;2023-04-05T00:02:20;99781.56;;;14.12;28.73
56713;BME280;42589;45.536;9.032;2023-04-05T00:05:23;99793.88;;;13.82;28.97
56713;BME280;42589;45.536;9.032;2023-04-05T00:08:30;99797.53;;;14.52;28.22
56713;BME280;42589;45.536;9.032;2023-04-05T00:11:32;99808.81;;;13.60;29.09
56713;BME280;42589;45.536;9.032;2023-04-05T00:14:33;99807.53;;;14.27;28.47
56713;BME280;42589;45.536;9.032;2023-04-05T00:17:33;99804.91;;;13.79;28.93
56713;BME280;42589;45.536;9.032;2023-04-05T00:20:34;99809.66;;;14.08;28.58
56713;BME280;42589;45.536;9.032;2023-04-05T00:23:36;99806.66;;;14.03;28.94
56713;BME280;42589;45.536;9.032;2023-04-05T00:26:38;99794.34;;;14.25;28.68
56713;BME280;42589;45.536;9.032;2023-04-05T00:29:39;99801.19;;;14.28;28.28
56713;BME280;42589;45.536;9.032;2023-04-05T00:32:41;99809.25;;;14.20;28.64
56713;BME280;42589;45.536;9.032;2023-04-05T00:35:42;99810.41;;;13.06;29.89
56713;BME280;42589;45.536;9.032;2023-04-05T00:38:45;99813.72;;;13.49;29.26
56713;BME280;42589;45.536;9.032;2023-04-05T00:41:45;99814.34;;;13.98;28.33
56713;BME280;42589;45.536;9.032;2023-04-05T00:44:46;99804.13;;;14.02;28.68
56713;BME280;42589;45.536;9.032;2023-04-05T00:47:47;99795.00;;;14.27;28.25
56713;BME280;42589;45.536;9.032;2023-04-05T00:50:49;99806.78;;;14.41;27.89
56713;BME280;42589;45.536;9.032;2023-04-05T00:53:51;99798.06;;;13.85;28.86
56713;BME280;42589;45.536;9.032;2023-04-05T00:56:51;99765.34;;;13.35;29.27
56713;BME280;42589;45.536;9.032;2023-04-05T00:59:52;99797.50;;;14.29;28.19
56713;BME280;42589;45.536;9.032;2023-04-05T01:02:57;99799.25;;;14.13;28.28
56713;BME280;42589;45.536;9.032;2023-04-05T01:06:10;99795.50;;;14.00;29.00
56713;BME280;42589;45.536;9.032;2023-04-05T01:10:09;99784.56;;;14.09;28.98
56713;BME280;42589;45.536;9.032;2023-04-05T01:12:52;99791.94;;;13.68;29.39
56713;BME280;42589;45.536;9.032;2023-04-05T01:15:53;99793.97;;;14.05;28.87
56713;BME280;42589;45.536;9.032;2023-04-05T01:18:54;99792.25;;;13.73;29.07
56713;BME280;42589;45.536;9.032;2023-04-05T01:25:56;99793.84;;;13.99;28.28
56713;BME280;42589;45.536;9.032;2023-04-05T01:35:38;99803.50;;;14.00;29.42
56713;BME280;42589;45.536;9.032;2023-04-05T01:38:39;99800.38;;;13.88;28.77
56713;BME280;42589;45.536;9.032;2023-04-05T01:41:40;99806.59;;;13.80;29.01
56713;BME280;42589;45.536;9.032;2023-04-05T01:44:41;99804.75;;;13.81;29.19
56713;BME280;42589;45.536;9.032;2023-04-05T01:47:42;99807.66;;;13.63;29.43
56713;BME280;42589;45.536;9.032;2023-04-05T01:51:03;99778.81;;;13.50;29.47
56713;BME280;42589;45.536;9.032;2023-04-05T01:54:04;99792.16;;;13.58;29.21
56713;BME280;42589;45.536;9.032;2023-04-05T01:57:06;99800.13;;;13.66;29.17
56713;BME280;42589;45.536;9.032;2023-04-05T02:00:09;99774.97;;;13.53;29.01
56713;BME280;42589;45.536;9.032;2023-04-05T02:03:12;99783.56;;;13.07;29.26
56713;BME280;42589;45.536;9.032;2023-04-05T02:06:13;99790.22;;;13.36;29.33
56713;BME280;42589;45.536;9.032;2023-04-05T02:09:14;99791.84;;;13.45;28.85
56713;BME280;42589;45.536;9.032;2023-04-05T02:12:15;99784.13;;;13.58;28.71
56713;BME280;42589;45.536;9.032;2023-04-05T02:15:16;99778.84;;;13.34;29.14
56713;BME280;42589;45.536;9.032;2023-04-05T02:18:17;99809.72;;;13.28;29.63
56713;BME280;42589;45.536;9.032;2023-04-05T02:21:22;99802.03;;;13.41;29.45
56713;BME280;42589;45.536;9.032;2023-04-05T02:24:23;99806.53;;;13.49;29.19
56713;BME280;42589;45.536;9.032;2023-04-05T02:27:25;99781.88;;;13.06;29.79
56713;BME280;42589;45.536;9.032;2023-04-05T02:30:26;99808.72;;;13.37;29.36
56713;BME280;42589;45.536;9.032;2023-04-05T02:33:28;99794.03;;;13.09;30.06
56713;BME280;42589;45.536;9.032;2023-04-05T02:36:28;99812.06;;;13.23;30.00
56713;BME280;42589;45.536;9.032;2023-04-05T02:39:29;99817.06;;;13.01;29.77
56713;BME280;42589;45.536;9.032;2023-04-05T02:42:30;99814.22;;;13.11;29.78
56713;BME280;42589;45.536;9.032;2023-04-05T02:45:31;99815.38;;;12.51;30.53
56713;BME280;42589;45.536;9.032;2023-04-05T02:48:32;99801.06;;;12.77;30.14
56713;BME280;42589;45.536;9.032;2023-04-05T02:51:33;99812.06;;;12.98;29.92
56713;BME280;42589;45.536;9.032;2023-04-05T02:54:34;99810.06;;;13.09;29.67
56713;BME280;42589;45.536;9.032;2023-04-05T02:57:34;99798.91;;;13.30;29.61
56713;BME280;42589;45.536;9.032;2023-04-05T03:00:35;99812.59;;;13.27;29.52
56713;BME280;42589;45.536;9.032;2023-04-05T03:03:36;99804.22;;;13.21;29.64
56713;BME280;42589;45.536;9.032;2023-04-05T03:06:39;99781.69;;;13.24;29.27
56713;BME280;42589;45.536;9.032;2023-04-05T03:09:44;99811.03;;;13.24;29.56
56713;BME280;42589;45.536;9.032;2023-04-05T03:12:45;99787.38;;;12.96;29.71
56713;BME280;42589;45.536;9.032;2023-04-05T03:15:46;99777.72;;;12.95;29.81
56713;BME280;42589;45.536;9.032;2023-04-05T03:18:50;99800.72;;;13.21;29.83
56713;BME280;42589;45.536;9.032;2023-04-05T03:21:52;99787.53;;;13.11;29.70
56713;BME280;42589;45.536;9.032;2023-04-05T03:24:52;99804.56;;;13.02;29.94
56713;BME280;42589;45.536;9.032;2023-04-05T03:27:53;99793.22;;;13.08;29.75
56713;BME280;42589;45.536;9.032;2023-04-05T03:30:54;99791.22;;;12.94;30.05
56713;BME280;42589;45.536;9.032;2023-04-05T03:33:55;99809.91;;;13.10;30.05
56713;BME280;42589;45.536;9.032;2023-04-05T03:36:57;99791.75;;;12.97;29.70
56713;BME280;42589;45.536;9.032;2023-04-05T03:39:58;99805.25;;;13.04;30.31
56713;BME280;42589;45.536;9.032;2023-04-05T03:43:00;99804.91;;;13.07;29.91
56713;BME280;42589;45.536;9.032;2023-04-05T03:46:02;99802.53;;;13.12;30.24
56713;BME280;42589;45.536;9.032;2023-04-05T03:49:03;99808.72;;;12.96;30.30
56713;BME280;42589;45.536;9.032;2023-04-05T03:52:04;99802.06;;;13.17;29.91
56713;BME280;42589;45.536;9.032;2023-04-05T03:55:05;99798.88;;;12.97;30.31
56713;BME280;42589;45.536;9.032;2023-04-05T03:58:06;99809.88;;;12.61;30.92
56713;BME280;42589;45.536;9.032;2023-04-05T04:01:07;99782.56;;;12.75;30.35
56713;BME280;42589;45.536;9.032;2023-04-05T04:04:09;99803.22;;;12.73;30.92
56713;BME280;42589;45.536;9.032;2023-04-05T04:07:10;99791.38;;;12.43;30.88
56713;BME280;42589;45.536;9.032;2023-04-05T04:10:13;99785.84;;;12.37;31.19
56713;BME280;42589;45.536;9.032;2023-04-05T04:13:16;99804.03;;;12.41;31.17
56713;BME280;42589;45.536;9.032;2023-04-05T04:16:18;99789.41;;;12.53;30.91
56713;BME280;42589;45.536;9.032;2023-04-05T04:19:19;99807.41;;;12.84;30.43
56713;BME280;42589;45.536;9.032;2023-04-05T04:22:21;99810.03;;;12.51;30.97
56713;BME280;42589;45.536;9.032;2023-04-05T04:25:23;99807.06;;;12.63;30.85
56713;BME280;42589;45.536;9.032;2023-04-05T04:28:26;99789.91;;;12.57;30.61
56713;BME280;42589;45.536;9.032;2023-04-05T04:31:27;99799.56;;;12.83;30.23
56713;BME280;42589;45.536;9.032;2023-04-05T04:34:29;99807.75;;;12.97;30.34
56713;BME280;42589;45.536;9.032;2023-04-05T04:37:33;99771.41;;;12.64;30.19
56713;BME280;42589;45.536;9.032;2023-04-05T04:40:37;99809.75;;;12.79;30.66
56713;BME280;42589;45.536;9.032;2023-04-05T04:43:38;99809.22;;;12.84;30.29
56713;BME280;42589;45.536;9.032;2023-04-05T04:46:45;99808.06;;;12.86;30.22
56713;BME280;42589;45.536;9.032;2023-04-05T04:49:46;99813.75;;;12.67;30.47
56713;BME280;42589;45.536;9.032;2023-04-05T04:52:46;99813.59;;;13.01;30.26
56713;BME280;42589;45.536;9.032;2023-04-05T04:55:48;99810.41;;;12.97;30.49
56713;BME280;42589;45.536;9.032;2023-04-05T04:58:49;99807.41;;;12.84;30.41
56713;BME280;42589;45.536;9.032;2023-04-05T05:01:50;99806.56;;;13.00;30.07
56713;BME280;42589;45.536;9.032;2023-04-05T05:04:51;99811.91;;;13.16;30.03
56713;BME280;42589;45.536;9.032;2023-04-05T05:07:52;99803.91;;;12.92;30.00
56713;BME280;42589;45.536;9.032;2023-04-05T05:10:52;99822.66;;;12.25;31.92
56713;BME280;42589;45.536;9.032;2023-04-05T05:13:53;99798.72;;;12.74;30.81
56713;BME280;42589;45.536;9.032;2023-04-05T05:16:55;99804.75;;;12.92;30.62
56713;BME280;42589;45.536;9.032;2023-04-05T05:19:58;99832.41;;;12.83;30.92
56713;BME280;42589;45.536;9.032;2023-04-05T05:23:03;99828.41;;;12.87;30.94
56713;BME280;42589;45.536;9.032;2023-04-05T05:26:04;99790.06;;;12.88;30.58
56713;BME280;42589;45.536;9.032;2023-04-05T05:29:08;99818.41;;;12.89;30.90
56713;BME280;42589;45.536;9.032;2023-04-05T05:32:09;99840.06;;;13.43;30.32
56713;BME280;42589;45.536;9.032;2023-04-05T05:35:13;99804.78;;;13.73;30.08
56713;BME280;42589;45.536;9.032;2023-04-05T05:38:17;99802.22;;;13.87;29.82
56713;BME280;42589;45.536;9.032;2023-04-05T05:41:21;99819.81;;;14.13;29.56
56713;BME280;42589;45.536;9.032;2023-04-05T05:44:22;99809.22;;;14.28;28.99
56713;BME280;42589;45.536;9.032;2023-04-05T05:47:23;99820.88;;;14.27;28.64
56713;BME280;42589;45.536;9.032;2023-04-05T05:50:25;99839.91;;;14.01;28.63
56713;BME280;42589;45.536;9.032;2023-04-05T05:53:27;99817.16;;;14.05;28.88
56713;BME280;42589;45.536;9.032;2023-04-05T05:56:27;99822.91;;;13.93;29.18
56713;BME280;42589;45.536;9.032;2023-04-05T05:59:28;99834.13;;;14.20;29.13
56713;BME280;42589;45.536;9.032;2023-04-05T06:02:29;99824.34;;;14.35;28.65
56713;BME280;42589;45.536;9.032;2023-04-05T06:05:31;99842.28;;;14.27;29.74
56713;BME280;42589;45.536;9.032;2023-04-05T06:08:32;99837.22;;;14.94;28.71
56713;BME280;42589;45.536;9.032;2023-04-05T06:11:33;99833.09;;;14.83;28.43
56713;BME280;42589;45.536;9.032;2023-04-05T06:14:34;99856.00;;;14.86;29.11
56713;BME280;42589;45.536;9.032;2023-04-05T06:17:35;99847.06;;;14.71;28.90
56713;BME280;42589;45.536;9.032;2023-04-05T06:20:44;99837.91;;;15.11;29.10
56713;BME280;42589;45.536;9.032;2023-04-05T06:23:44;99859.53;;;15.24;28.52
56713;BME280;42589;45.536;9.032;2023-04-05T06:26:45;99837.81;;;14.50;29.78
56713;BME280;42589;45.536;9.032;2023-04-05T06:29:46;99860.78;;;15.51;28.40
56713;BME280;42589;45.536;9.032;2023-04-05T06:32:47;99849.81;;;15.76;27.54
56713;BME280;42589;45.536;9.032;2023-04-05T06:35:56;99860.06;;;15.58;27.54
56713;BME280;42589;45.536;9.032;2023-04-05T06:38:57;99860.53;;;15.23;28.00
56713;BME280;42589;45.536;9.032;2023-04-05T06:41:58;99844.63;;;14.61;28.49
56713;BME280;42589;45.536;9.032;2023-04-05T06:44:59;99859.63;;;14.70;28.19
56713;BME280;42589;45.536;9.032;2023-04-05T06:48:03;99858.94;;;15.52;28.06
56713;BME280;42589;45.536;9.032;2023-04-05T06:51:04;99836.16;;;15.18;27.83
56713;BME280;42589;45.536;9.032;2023-04-05T06:54:06;99855.91;;;16.65;26.16
56713;BME280;42589;45.536;9.032;2023-04-05T06:57:07;99847.41;;;16.11;26.88
56713;BME280;42589;45.536;9.032;2023-04-05T07:00:08;99824.81;;;16.20;27.64
56713;BME280;42589;45.536;9.032;2023-04-05T07:03:12;99818.22;;;16.37;26.69
56713;BME280;42589;45.536;9.032;2023-04-05T07:06:16;99838.19;;;16.71;26.72
56713;BME280;42589;45.536;9.032;2023-04-05T07:09:17;99832.16;;;17.33;25.89
56713;BME280;42589;45.536;9.032;2023-04-05T07:12:19;99837.13;;;17.08;25.61
56713;BME280;42589;45.536;9.032;2023-04-05T07:15:20;99861.03;;;16.82;26.25
56713;BME280;42589;45.536;9.032;2023-04-05T07:18:21;99828.63;;;17.05;25.60
56713;BME280;42589;45.536;9.032;2023-04-05T07:21:23;99842.63;;;15.76;27.57
56713;BME280;42589;45.536;9.032;2023-04-05T07:24:24;99854.75;;;16.38;27.58
56713;BME280;42589;45.536;9.032;2023-04-05T07:27:25;99853.13;;;16.22;27.16
56713;BME280;42589;45.536;9.032;2023-04-05T07:30:26;99828.94;;;16.01;27.78
56713;BME280;42589;45.536;9.032;2023-04-05T07:33:27;99851.97;;;17.04;27.13
56713;BME280;42589;45.536;9.032;2023-04-05T07:36:28;99835.66;;;16.48;26.96
56713;BME280;42589;45.536;9.032;2023-04-05T07:39:30;99858.38;;;17.03;26.97
56713;BME280;42589;45.536;9.032;2023-04-05T07:42:31;99853.16;;;17.23;26.83
56713;BME280;42589;45.536;9.032;2023-04-05T07:45:32;99852.84;;;16.90;26.38
56713;BME280;42589;45.536;9.032;2023-04-05T07:48:33;99854.16;;;16.58;27.47
56713;BME280;42589;45.536;9.032;2023-04-05T07:51:34;99874.41;;;16.75;26.65
56713;BME280;42589;45.536;9.032;2023-04-05T07:54:36;99872.22;;;17.07;26.89
56713;BME280;42589;45.536;9.032;2023-04-05T07:57:38;99844.53;;;17.34;25.97
56713;BME280;42589;45.536;9.032;2023-04-05T08:00:42;99839.97;;;17.91;25.53
56713;BME280;42589;45.536;9.032;2023-04-05T08:03:43;99835.41;;;17.85;25.38
56713;BME280;42589;45.536;9.032;2023-04-05T08:06:46;99866.72;;;17.99;25.28
56713;BME280;42589;45.536;9.032;2023-04-05T08:09:46;99867.75;;;17.98;25.92
56713;BME280;42589;45.536;9.032;2023-04-05T08:12:47;99873.53;;;17.67;24.93
56713;BME280;42589;45.536;9.032;2023-04-05T08:15:50;99875.41;;;16.96;27.31
56713;BME280;42589;45.536;9.032;2023-04-05T08:18:54;99863.75;;;17.59;25.73
56713;BME280;42589;45.536;9.032;2023-04-05T08:21:55;99845.78;;;17.32;25.64
56713;BME280;42589;45.536;9.032;2023-04-05T08:24:56;99861.06;;;17.31;25.89
56713;BME280;42589;45.536;9.032;2023-04-05T08:27:57;99879.25;;;17.29;25.39
56713;BME280;42589;45.536;9.032;2023-04-05T08:30:58;99850.66;;;16.42;25.35
56713;BME280;42589;45.536;9.032;2023-04-05T08:33:59;99860.97;;;17.18;26.27
56713;BME280;42589;45.536;9.032;2023-04-05T08:37:00;99870.81;;;16.89;25.82
56713;BME280;42589;45.536;9.032;2023-04-05T08:40:02;99848.19;;;17.48;25.78
56713;BME280;42589;45.536;9.032;2023-04-05T08:46:13;99870.25;;;17.72;25.52
56713;BME280;42589;45.536;9.032;2023-04-05T08:49:15;99849.34;;;16.89;25.93
56713;BME280;42589;45.536;9.032;2023-04-05T08:52:17;99869.41;;;17.15;25.78
56713;BME280;42589;45.536;9.032;2023-04-05T08:55:18;99858.81;;;17.91;25.31
56713;BME280;42589;45.536;9.032;2023-04-05T08:58:20;99822.56;;;17.52;25.61
56713;BME280;42589;45.536;9.032;2023-04-05T09:01:26;99856.41;;;17.75;25.23
56713;BME280;42589;45.536;9.032;2023-04-05T09:04:30;99875.88;;;16.99;25.88
56713;BME280;42589;45.536;9.032;2023-04-05T09:07:35;99862.38;;;17.14;26.77
56713;BME280;42589;45.536;9.032;2023-04-05T09:10:38;99859.13;;;17.47;25.70
56713;BME280;42589;45.536;9.032;2023-04-05T09:13:39;99874.31;;;17.33;25.35
56713;BME280;42589;45.536;9.032;2023-04-05T09:16:40;99848.06;;;17.91;25.12
56713;BME280;42589;45.536;9.032;2023-04-05T09:19:47;99819.97;;;17.66;24.91
56713;BME280;42589;45.536;9.032;2023-04-05T09:22:52;99834.53;;;18.19;24.39
56713;BME280;42589;45.536;9.032;2023-04-05T09:25:59;99849.09;;;18.45;23.61
56713;BME280;42589;45.536;9.032;2023-04-05T09:29:00;99840.94;;;18.12;24.36
56713;BME280;42589;45.536;9.032;2023-04-05T09:32:02;99856.81;;;17.44;24.81
56713;BME280;42589;45.536;9.032;2023-04-05T09:35:05;99836.16;;;18.14;23.93
56713;BME280;42589;45.536;9.032;2023-04-05T09:38:06;99834.16;;;17.81;24.45
56713;BME280;42589;45.536;9.032;2023-04-05T09:41:09;99863.03;;;18.07;24.42
56713;BME280;42589;45.536;9.032;2023-04-05T09:44:11;99871.44;;;17.91;24.51
56713;BME280;42589;45.536;9.032;2023-04-05T09:47:17;99836.56;;;18.17;24.14
56713;BME280;42589;45.536;9.032;2023-04-05T09:50:20;99803.94;;;17.79;24.87
56713;BME280;42589;45.536;9.032;2023-04-05T09:53:22;99814.34;;;18.43;23.75
56713;BME280;42589;45.536;9.032;2023-04-05T09:56:23;99835.09;;;17.67;25.39
56713;BME280;42589;45.536;9.032;2023-04-05T09:59:24;99835.06;;;18.56;24.12
56713;BME280;42589;45.536;9.032;2023-04-05T10:02:37;99837.97;;;18.00;25.00
56713;BME280;42589;45.536;9.032;2023-04-05T10:05:38;99811.81;;;17.80;24.74
56713;BME280;42589;45.536;9.032;2023-04-05T10:08:39;99816.66;;;17.63;24.90
56713;BME280;42589;45.536;9.032;2023-04-05T10:11:41;99800.22;;;17.45;24.99
56713;BME280;42589;45.536;9.032;2023-04-05T10:14:44;99850.28;;;18.22;24.24
56713;BME280;42589;45.536;9.032;2023-04-05T10:17:51;99840.97;;;19.13;24.21
56713;BME280;42589;45.536;9.032;2023-04-05T10:20:56;99819.41;;;18.12;23.82
56713;BME280;42589;45.536;9.032;2023-04-05T10:24:06;99845.00;;;18.55;23.96
56713;BME280;42589;45.536;9.032;2023-04-05T10:27:26;99801.66;;;18.24;24.06
56713;BME280;42589;45.536;9.032;2023-04-05T10:30:34;99795.09;;;17.92;24.05
56713;BME280;42589;45.536;9.032;2023-04-05T10:33:43;99822.50;;;18.96;23.65
56713;BME280;42589;45.536;9.032;2023-04-05T10:37:00;99827.88;;;18.96;23.08
56713;BME280;42589;45.536;9.032;2023-04-05T10:40:02;99793.41;;;16.50;26.13
56713;BME280;42589;45.536;9.032;2023-04-05T10:43:07;99793.88;;;18.55;23.97
56713;BME280;42589;45.536;9.032;2023-04-05T10:46:10;99779.78;;;18.47;22.97
56713;BME280;42589;45.536;9.032;2023-04-05T10:49:38;99818.88;;;17.60;25.96
56713;BME280;42589;45.536;9.032;2023-04-05T10:52:40;99802.84;;;17.73;24.09
56713;BME280;42589;45.536;9.032;2023-04-05T10:55:44;99783.81;;;16.84;24.55
56713;BME280;42589;45.536;9.032;2023-04-05T10:58:49;99795.34;;;17.97;24.26
56713;BME280;42589;45.536;9.032;2023-04-05T11:01:52;99780.81;;;17.22;25.09
56713;BME280;42589;45.536;9.032;2023-04-05T11:04:54;99810.63;;;17.90;25.21
56713;BME280;42589;45.536;9.032;2023-04-05T11:07:59;99750.84;;;17.94;24.33
56713;BME280;42589;45.536;9.032;2023-04-05T11:11:00;99797.03;;;18.72;24.98
56713;BME280;42589;45.536;9.032;2023-04-05T11:14:19;99767.69;;;18.23;23.93
56713;BME280;42589;45.536;9.032;2023-04-05T11:17:25;99750.00;;;18.88;23.70
56713;BME280;42589;45.536;9.032;2023-04-05T11:20:26;99789.47;;;18.35;24.34
56713;BME280;42589;45.536;9.032;2023-04-05T11:23:28;99786.25;;;18.92;23.37
56713;BME280;42589;45.536;9.032;2023-04-05T11:26:51;99770.44;;;17.81;23.89
56713;BME280;42589;45.536;9.032;2023-04-05T11:29:52;99784.13;;;18.61;24.30
56713;BME280;42589;45.536;9.032;2023-04-05T11:32:53;99761.13;;;18.45;23.49
56713;BME280;42589;45.536;9.032;2023-04-05T11:36:01;99768.38;;;18.65;23.06
56713;BME280;42589;45.536;9.032;2023-04-05T11:42:17;99759.81;;;17.67;23.80
56713;BME280;42589;45.536;9.032;2023-04-05T11:45:20;99783.34;;;17.99;24.73
56713;BME280;42589;45.536;9.032;2023-04-05T11:48:22;99777.31;;;17.91;25.05
56713;BME280;42589;45.536;9.032;2023-04-05T11:51:25;99732.78;;;19.09;23.93
56713;BME280;42589;45.536;9.032;2023-04-05T11:54:32;99749.53;;;19.31;22.77
56713;BME280;42589;45.536;9.032;2023-04-05T11:57:34;99758.47;;;19.18;23.52
56713;BME280;42589;45.536;9.032;2023-04-05T12:00:36;99713.69;;;18.24;24.23
56713;BME280;42589;45.536;9.032;2023-04-05T12:03:37;99742.28;;;18.45;24.12
56713;BME280;42589;45.536;9.032;2023-04-05T12:06:38;99725.53;;;19.16;23.74
56713;BME280;42589;45.536;9.032;2023-04-05T12:10:08;99760.88;;;19.53;22.81
56713;BME280;42589;45.536;9.032;2023-04-05T12:13:11;99741.72;;;19.03;23.87
56713;BME280;42589;45.536;9.032;2023-04-05T12:16:12;99738.28;;;20.44;22.16
56713;BME280;42589;45.536;9.032;2023-04-05T12:19:15;99726.03;;;19.65;22.37
56713;BME280;42589;45.536;9.032;2023-04-05T12:22:16;99728.22;;;18.70;24.83
56713;BME280;42589;45.536;9.032;2023-04-05T12:25:17;99715.78;;;19.22;23.08
56713;BME280;42589;45.536;9.032;2023-04-05T12:28:18;99719.50;;;19.14;23.85
56713;BME280;42589;45.536;9.032;2023-04-05T12:31:39;99729.97;;;20.14;22.69
56713;BME280;42589;45.536;9.032;2023-04-05T12:34:46;99732.78;;;19.09;23.25
56713;BME280;42589;45.536;9.032;2023-04-05T12:37:51;99712.88;;;19.23;23.13
56713;BME280;42589;45.536;9.032;2023-04-05T12:40:52;99704.53;;;19.97;23.54
56713;BME280;42589;45.536;9.032;2023-04-05T12:43:54;99692.91;;;19.96;21.93
56713;BME280;42589;45.536;9.032;2023-04-05T12:47:00;99726.44;;;20.13;22.58
56713;BME280;42589;45.536;9.032;2023-04-05T12:50:12;99709.06;;;20.03;22.52
56713;BME280;42589;45.536;9.032;2023-04-05T12:53:17;99710.78;;;19.90;21.90
56713;BME280;42589;45.536;9.032;2023-04-05T12:56:19;99707.94;;;20.55;21.86
56713;BME280;42589;45.536;9.032;2023-04-05T12:59:20;99678.84;;;19.87;21.42
56713;BME280;42589;45.536;9.032;2023-04-05T13:02:22;99704.88;;;20.70;21.88
56713;BME280;42589;45.536;9.032;2023-04-05T13:05:25;99680.03;;;21.05;21.61
56713;BME280;42589;45.536;9.032;2023-04-05T13:08:26;99680.06;;;20.55;21.67
56713;BME280;42589;45.536;9.032;2023-04-05T13:11:27;99678.91;;;20.44;21.74
56713;BME280;42589;45.536;9.032;2023-04-05T13:14:29;99690.63;;;20.63;21.43
56713;BME280;42589;45.536;9.032;2023-04-05T13:17:30;99658.88;;;20.58;21.32
56713;BME280;42589;45.536;9.032;2023-04-05T13:20:34;99667.97;;;21.07;20.94
56713;BME280;42589;45.536;9.032;2023-04-05T13:23:36;99623.22;;;21.30;20.87
56713;BME280;42589;45.536;9.032;2023-04-05T13:26:37;99662.78;;;21.06;21.70
56713;BME280;42589;45.536;9.032;2023-04-05T13:29:38;99674.16;;;20.39;21.62
56713;BME280;42589;45.536;9.032;2023-04-05T13:32:39;99638.47;;;20.88;21.63
56713;BME280;42589;45.536;9.032;2023-04-05T13:38:50;99611.94;;;20.59;21.87
56713;BME280;42589;45.536;9.032;2023-04-05T13:41:52;99667.81;;;20.59;22.62
56713;BME280;42589;45.536;9.032;2023-04-05T13:44:54;99659.81;;;19.82;22.36
56713;BME280;42589;45.536;9.032;2023-04-05T13:47:55;99625.75;;;19.36;22.40
56713;BME280;42589;45.536;9.032;2023-04-05T13:50:56;99643.94;;;20.81;21.35
56713;BME280;42589;45.536;9.032;2023-04-05T13:53:57;99623.03;;;20.45;21.99
56713;BME280;42589;45.536;9.032;2023-04-05T13:56:59;99628.13;;;20.59;21.93
56713;BME280;42589;45.536;9.032;2023-04-05T14:00:00;99596.72;;;19.83;22.31
56713;BME280;42589;45.536;9.032;2023-04-05T14:03:01;99621.09;;;19.70;22.05
56713;BME280;42589;45.536;9.032;2023-04-05T14:06:05;99592.34;;;19.44;22.23
56713;BME280;42589;45.536;9.032;2023-04-05T14:09:06;99594.25;;;20.07;21.42
56713;BME280;42589;45.536;9.032;2023-04-05T14:12:07;99628.56;;;19.61;21.86
56713;BME280;42589;45.536;9.032;2023-04-05T14:15:09;99630.88;;;20.53;21.57
56713;BME280;42589;45.536;9.032;2023-04-05T14:18:09;99626.16;;;21.10;21.73
56713;BME280;42589;45.536;9.032;2023-04-05T14:21:10;99624.47;;;19.45;23.35
56713;BME280;42589;45.536;9.032;2023-04-05T14:24:12;99617.63;;;19.49;22.58
56713;BME280;42589;45.536;9.032;2023-04-05T14:27:13;99601.41;;;19.56;22.75
56713;BME280;42589;45.536;9.032;2023-04-05T14:30:14;99615.69;;;20.58;22.50
56713;BME280;42589;45.536;9.032;2023-04-05T14:33:18;99623.53;;;20.35;22.31
56713;BME280;42589;45.536;9.032;2023-04-05T14:36:19;99577.03;;;20.58;21.93
56713;BME280;42589;45.536;9.032;2023-04-05T14:39:20;99596.50;;;21.03;21.59
56713;BME280;42589;45.536;9.032;2023-04-05T14:42:21;99622.31;;;20.99;21.27
56713;BME280;42589;45.536;9.032;2023-04-05T14:45:22;99622.19;;;21.13;21.23
56713;BME280;42589;45.536;9.032;2023-04-05T14:48:29;99579.06;;;19.87;22.70
56713;BME280;42589;45.536;9.032;2023-04-05T14:51:33;99574.81;;;20.23;22.25
56713;BME280;42589;45.536;9.032;2023-04-05T14:54:37;99573.34;;;20.02;22.39
56713;BME280;42589;45.536;9.032;2023-04-05T14:57:39;99586.31;;;20.87;21.97
56713;BME280;42589;45.536;9.032;2023-04-05T15:00:40;99593.97;;;19.52;23.12
56713;BME280;42589;45.536;9.032;2023-04-05T15:03:41;99572.59;;;19.88;22.43
56713;BME280;42589;45.536;9.032;2023-04-05T15:06:45;99568.66;;;20.41;22.33
56713;BME280;42589;45.536;9.032;2023-04-05T15:09:46;99609.72;;;20.93;22.00
56713;BME280;42589;45.536;9.032;2023-04-05T15:12:48;99589.75;;;20.51;21.62
56713;BME280;42589;45.536;9.032;2023-04-05T15:15:48;99608.25;;;21.27;21.64
56713;BME280;42589;45.536;9.032;2023-04-05T15:18:50;99608.78;;;20.62;21.87
56713;BME280;42589;45.536;9.032;2023-04-05T15:21:51;99558.75;;;20.78;21.55
56713;BME280;42589;45.536;9.032;2023-04-05T15:24:54;99594.06;;;20.77;21.65
56713;BME280;42589;45.536;9.032;2023-04-05T15:27:54;99606.72;;;20.33;22.29
56713;BME280;42589;45.536;9.032;2023-04-05T15:30:57;99591.09;;;20.85;21.86
56713;BME280;42589;45.536;9.032;2023-04-05T15:33:58;99572.84;;;20.62;22.23
56713;BME280;42589;45.536;9.032;2023-04-05T15:37:00;99560.03;;;20.51;22.26
56713;BME280;42589;45.536;9.032;2023-04-05T15:40:02;99604.63;;;21.03;22.37
56713;BME280;42589;45.536;9.032;2023-04-05T15:43:06;99590.78;;;20.56;22.15
56713;BME280;42589;45.536;9.032;2023-04-05T15:46:07;99581.22;;;20.54;21.97
56713;BME280;42589;45.536;9.032;2023-04-05T15:49:10;99607.44;;;21.75;21.08
56713;BME280;42589;45.536;9.032;2023-04-05T15:52:12;99582.47;;;22.03;21.54
56713;BME280;42589;45.536;9.032;2023-04-05T15:55:15;99588.31;;;23.99;19.52
56713;BME280;42589;45.536;9.032;2023-04-05T15:58:16;99577.50;;;24.71;18.24
56713;BME280;42589;45.536;9.032;2023-04-05T16:01:27;99551.09;;;25.33;18.02
56713;BME280;42589;45.536;9.032;2023-04-05T16:04:28;99560.28;;;25.27;17.84
56713;BME280;42589;45.536;9.032;2023-04-05T16:07:30;99560.41;;;24.54;18.41
56713;BME280;42589;45.536;9.032;2023-04-05T16:10:31;99553.44;;;25.73;17.30
56713;BME280;42589;45.536;9.032;2023-04-05T16:13:33;99542.78;;;25.71;17.49
56713;BME280;42589;45.536;9.032;2023-04-05T16:16:37;99551.03;;;26.09;17.00
56713;BME280;42589;45.536;9.032;2023-04-05T16:19:46;99548.16;;;26.63;16.84
56713;BME280;42589;45.536;9.032;2023-04-05T16:22:47;99588.94;;;27.58;16.05
56713;BME280;42589;45.536;9.032;2023-04-05T16:25:47;99584.41;;;27.94;16.32
56713;BME280;42589;45.536;9.032;2023-04-05T16:28:48;99565.13;;;26.33;16.75